Time;durP1;ratioP1;P1;durP2;ratioP2;P2;SDS_P1;SDS_P2;PMS_P1;PMS_P2;Temp;Humidity;BMP_temperature;BMP_pressure;BME280_temperature;BME280_humidity;BME280_pressure;Samples;Min_cycle;Max_cycle;Signal;HPM_P1;HPM_P2
2023/07/05 00:00:47;;;;;;;8.33;4.20;;;12.30;1.00;;;;;;5075881;28;20204;-87
2023/07/05 00:03:15;;;;;;;7.47;3.63;;;12.30;1.00;;;;;;5070808;28;20196;-89
2023/07/05 00:05:41;;;;;;;4.13;3.60;;;12.30;1.00;;;;;;5078423;28;20196;-86
2023/07/05 00:08:09;;;;;;;8.77;4.20;;;12.20;1.00;;;;;;5080162;28;20200;-88
2023/07/05 00:10:36;;;;;;;7.60;4.23;;;12.20;1.00;;;;;;5064683;28;20257;-88
2023/07/05 00:13:03;;;;;;;7.67;4.10;;;12.20;1.00;;;;;;5078789;28;20217;-89
2023/07/05 00:15:31;;;;;;;7.87;4.30;;;12.20;1.00;;;;;;5074768;28;20245;-88
2023/07/05 00:18:00;;;;;;;5.37;3.83;;;12.20;1.00;;;;;;5061553;28;20240;-89
2023/07/05 00:20:27;;;;;;;7.83;4.20;;;12.10;1.00;;;;;;5071617;28;20211;-88
2023/07/05 00:22:54;;;;;;;5.57;4.00;;;12.10;1.00;;;;;;5070493;28;20195;-87
2023/07/05 00:25:21;;;;;;;7.50;3.93;;;12.00;1.00;;;;;;5067533;28;20727;-88
2023/07/05 00:27:49;;;;;;;6.83;4.03;;;12.00;1.00;;;;;;5075858;28;20250;-87
2023/07/05 00:30:16;;;;;;;9.40;4.03;;;12.00;1.00;;;;;;5073691;28;20201;-87
2023/07/05 00:32:43;;;;;;;7.60;3.87;;;12.00;1.00;;;;;;5071851;28;20227;-86
2023/07/05 00:35:11;;;;;;;6.47;3.93;;;12.00;1.00;;;;;;5069494;28;20195;-88
2023/07/05 00:37:38;;;;;;;5.67;3.93;;;12.00;1.00;;;;;;5079291;28;20199;-88
2023/07/05 00:40:06;;;;;;;6.67;4.20;;;12.00;1.00;;;;;;5078577;28;20231;-88
2023/07/05 00:42:33;;;;;;;5.00;3.67;;;11.90;1.00;;;;;;5074300;28;20191;-88
2023/07/05 00:45:33;;;;;;;6.37;3.90;;;11.90;1.00;;;;;;5072421;28;20225;-86
2023/07/05 00:48:00;;;;;;;5.60;4.10;;;11.80;1.00;;;;;;5071887;28;20678;-88
2023/07/05 00:50:37;;;;;;;8.17;4.30;;;11.80;1.00;;;;;;5078656;28;20195;-89
2023/07/05 00:53:05;;;;;;;9.13;4.37;;;11.80;1.00;;;;;;5054632;28;20268;-87
2023/07/05 00:55:33;;;;;;;6.67;4.13;;;11.70;1.00;;;;;;5070068;28;20748;-88
2023/07/05 00:58:01;;;;;;;7.27;4.47;;;11.70;1.00;;;;;;5076449;28;20279;-88
2023/07/05 01:00:28;;;;;;;7.30;4.17;;;11.70;1.00;;;;;;5072043;28;20198;-88
2023/07/05 01:02:57;;;;;;;7.77;4.23;;;11.70;1.00;;;;;;5070830;28;20245;-88
2023/07/05 01:05:26;;;;;;;4.43;4.03;;;11.60;1.00;;;;;;5068304;28;20239;-87
2023/07/05 01:07:54;;;;;;;7.47;4.40;;;11.60;28.40;;;;;;5069716;28;20207;-89
2023/07/05 01:10:23;;;;;;;9.97;4.83;;;11.50;95.70;;;;;;5076385;28;20247;-86
2023/07/05 01:13:00;;;;;;;5.50;4.00;;;11.50;99.90;;;;;;5067871;28;20697;-87
2023/07/05 01:15:33;;;;;;;6.67;4.23;;;11.50;99.90;;;;;;5068464;28;20210;-88
2023/07/05 01:18:07;;;;;;;8.13;4.07;;;11.50;99.90;;;;;;5057835;28;20225;-88
2023/07/05 01:20:42;;;;;;;7.80;4.07;;;11.50;99.90;;;;;;5065023;28;20231;-88
2023/07/05 01:23:51;;;;;;;10.87;4.40;;;11.60;99.90;;;;;;5071084;28;20246;-87
2023/07/05 01:27:23;;;;;;;8.33;4.73;;;11.60;99.90;;;;;;5078409;28;20198;-89
2023/07/05 01:30:26;;;;;;;5.20;3.87;;;11.60;44.30;;;;;;5004750;28;20214;-88
2023/07/05 01:32:58;;;;;;;10.57;4.40;;;11.60;1.00;;;;;;5009259;28;20260;-88
2023/07/05 01:35:30;;;;;;;6.87;4.43;;;11.50;99.90;;;;;;5011188;28;20239;-91
2023/07/05 01:37:57;;;;;;;6.73;4.63;;;11.50;99.90;;;;;;4992622;28;20240;-87
2023/07/05 01:40:54;;;;;;;8.30;4.90;;;11.50;99.90;;;;;;4997687;28;20204;-89
2023/07/05 01:43:22;;;;;;;7.87;4.17;;;11.50;99.90;;;;;;4996519;28;20550;-87
2023/07/05 01:46:08;;;;;;;8.60;4.53;;;11.50;99.90;;;;;;4993175;28;20290;-86
2023/07/05 01:48:49;;;;;;;7.30;4.40;;;11.50;99.90;;;;;;4997405;28;20200;-88
2023/07/05 01:51:25;;;;;;;6.97;4.40;;;11.40;99.90;;;;;;4992898;28;20283;-88
2023/07/05 01:53:59;;;;;;;8.13;4.43;;;11.40;99.90;;;;;;5008859;28;20702;-89
2023/07/05 01:56:31;;;;;;;7.03;4.03;;;11.40;99.90;;;;;;4996348;28;20201;-88
2023/07/05 01:59:03;;;;;;;5.47;3.90;;;11.40;99.90;;;;;;5001800;28;20199;-88
2023/07/05 02:01:33;;;;;;;6.80;4.37;;;11.40;99.90;;;;;;5062103;28;20221;-87
2023/07/05 02:04:06;;;;;;;7.80;4.60;;;11.40;99.90;;;;;;5070237;28;20198;-87
2023/07/05 02:06:34;;;;;;;7.93;4.43;;;11.40;1.00;;;;;;5062542;28;20195;-89
2023/07/05 02:09:02;;;;;;;5.77;4.13;;;11.40;1.00;;;;;;5069526;28;20724;-87
2023/07/05 02:11:29;;;;;;;8.63;4.47;;;11.50;99.90;;;;;;5076505;28;20563;-86
2023/07/05 02:13:57;;;;;;;6.07;4.27;;;11.40;99.90;;;;;;5078577;28;20217;-88
2023/07/05 02:16:23;;;;;;;8.80;4.50;;;11.40;99.90;;;;;;5074882;28;20198;-88
2023/07/05 02:18:50;;;;;;;5.13;3.90;;;11.40;99.90;;;;;;5054239;28;20226;-89
2023/07/05 02:21:19;;;;;;;6.60;4.30;;;11.40;99.90;;;;;;5058549;28;20250;-87
2023/07/05 02:23:46;;;;;;;6.57;4.17;;;11.40;99.90;;;;;;5071559;28;20660;-87
2023/07/05 02:26:13;;;;;;;5.90;4.37;;;11.30;99.90;;;;;;5069585;28;20225;-88
2023/07/05 02:28:39;;;;;;;7.33;4.53;;;11.30;99.90;;;;;;5070346;28;20271;-90
2023/07/05 02:31:11;;;;;;;5.97;4.40;;;11.30;99.90;;;;;;5072476;28;20197;-87
2023/07/05 02:33:39;;;;;;;4.70;3.77;;;11.30;99.90;;;;;;5073585;28;20224;-87
2023/07/05 02:36:09;;;;;;;7.33;4.70;;;11.40;99.90;;;;;;5071798;28;20665;-88
2023/07/05 02:38:38;;;;;;;11.00;4.30;;;11.40;99.90;;;;;;5077514;28;20246;-90
2023/07/05 02:41:05;;;;;;;6.83;4.27;;;11.40;1.00;;;;;;5059866;28;20190;-88
2023/07/05 02:43:33;;;;;;;5.90;4.33;;;11.40;99.90;;;;;;5071240;28;20252;-88
2023/07/05 02:46:00;;;;;;;6.60;4.57;;;11.40;1.00;;;;;;5072009;28;20275;-90
2023/07/05 02:48:27;;;;;;;6.67;4.20;;;11.50;1.00;;;;;;5073845;28;20198;-89
2023/07/05 02:50:54;;;;;;;7.30;4.40;;;11.60;1.00;;;;;;5064991;28;20227;-87
2023/07/05 02:53:21;;;;;;;9.33;4.20;;;11.60;1.00;;;;;;5072208;28;20221;-87
2023/07/05 02:55:50;;;;;;;6.87;4.17;;;11.60;1.00;;;;;;5071553;28;20200;-87
2023/07/05 02:58:17;;;;;;;8.43;4.13;;;11.70;1.00;;;;;;5074907;28;20285;-88
2023/07/05 03:00:45;;;;;;;6.57;4.10;;;11.80;99.90;;;;;;5073152;28;20252;-87
2023/07/05 03:03:12;;;;;;;6.33;4.03;;;11.80;99.90;;;;;;5079828;28;20681;-88
2023/07/05 03:05:39;;;;;;;7.40;4.40;;;11.90;99.90;;;;;;5081316;28;20281;-86
2023/07/05 03:08:06;;;;;;;7.13;3.90;;;11.90;99.90;;;;;;5070023;28;20200;-87
2023/07/05 03:10:37;;;;;;;7.30;4.10;;;12.00;99.90;;;;;;5083073;28;20625;-87
2023/07/05 03:13:05;;;;;;;7.33;3.73;;;12.10;99.90;;;;;;5068438;28;20295;-88
2023/07/05 03:15:32;;;;;;;5.27;3.80;;;12.10;99.90;;;;;;5079451;28;20290;-87
2023/07/05 03:17:59;;;;;;;6.73;3.80;;;12.20;99.90;;;;;;5079674;28;20208;-90
2023/07/05 03:20:26;;;;;;;15.87;4.47;;;12.30;99.90;;;;;;5082520;28;20196;-87
2023/07/05 03:22:53;;;;;;;8.07;4.50;;;12.40;99.90;;;;;;5082546;28;20198;-88
2023/07/05 03:25:20;;;;;;;7.13;4.20;;;12.50;99.90;;;;;;5078623;28;20257;-87
2023/07/05 03:27:46;;;;;;;6.33;4.27;;;12.60;99.90;;;;;;5069590;28;20231;-89
2023/07/05 03:30:15;;;;;;;5.70;4.27;;;12.70;99.90;;;;;;5076318;28;20198;-87
2023/07/05 03:32:43;;;;;;;7.13;4.00;;;12.90;90.90;;;;;;5075087;28;20589;-87
2023/07/05 03:35:10;;;;;;;6.20;3.80;;;13.00;67.00;;;;;;5079311;28;20201;-88
2023/07/05 03:37:37;;;;;;;8.97;3.87;;;13.10;90.10;;;;;;5073473;28;20860;-88
2023/07/05 03:40:05;;;;;;;6.43;3.57;;;13.30;1.00;;;;;;5079347;28;20259;-88
2023/07/05 03:42:32;;;;;;;8.20;3.60;;;13.50;1.00;;;;;;5075626;28;20253;-88
2023/07/05 03:44:59;;;;;;;6.30;3.73;;;13.70;1.00;;;;;;5084903;28;20582;-90
2023/07/05 03:47:29;;;;;;;7.37;3.40;;;13.90;1.00;;;;;;5081411;28;20201;-87
2023/07/05 03:49:56;;;;;;;6.80;3.77;;;14.10;1.00;;;;;;5072114;28;20632;-88
2023/07/05 03:52:24;;;;;;;7.63;3.50;;;14.30;1.00;;;;;;5075849;28;20252;-88
2023/07/05 03:54:51;;;;;;;7.80;3.77;;;14.50;1.00;;;;;;5070576;28;20254;-87
2023/07/05 03:57:18;;;;;;;6.33;3.50;;;14.70;99.90;;;;;;5077160;28;20227;-88
2023/07/05 03:59:46;;;;;;;19.00;4.53;;;14.90;99.90;;;;;;5078660;28;20259;-89
2023/07/05 04:02:13;;;;;;;10.10;3.70;;;15.20;99.90;;;;;;5075079;28;20251;-87
2023/07/05 04:04:42;;;;;;;8.75;3.33;;;15.50;99.90;;;;;;5062292;28;20286;-88
2023/07/05 04:07:09;;;;;;;7.18;3.20;;;15.90;1.00;;;;;;5064216;28;20206;-90
2023/07/05 04:09:36;;;;;;;6.85;2.92;;;16.40;1.00;;;;;;5068057;28;20685;-90
2023/07/05 04:12:03;;;;;;;8.50;2.88;;;16.80;1.00;;;;;;5076905;28;20192;-88
2023/07/05 04:14:30;;;;;;;6.72;3.03;;;17.30;99.90;;;;;;5087133;28;20236;-89
2023/07/05 04:16:58;;;;;;;6.45;2.95;;;17.70;99.90;;;;;;5069766;28;20235;-88
2023/07/05 04:19:25;;;;;;;7.22;2.95;;;17.90;99.90;;;;;;5070030;28;20632;-88
2023/07/05 04:21:53;;;;;;;8.52;2.83;;;18.00;48.20;;;;;;5072035;28;20191;-87
2023/07/05 04:24:20;;;;;;;9.00;2.70;;;18.00;1.00;;;;;;5076562;28;20201;-88
2023/07/05 04:26:47;;;;;;;10.00;3.45;;;17.90;1.00;;;;;;5059698;28;20236;-87
2023/07/05 04:29:14;;;;;;;8.90;3.25;;;17.90;1.00;;;;;;5080202;28;20197;-88
2023/07/05 04:31:41;;;;;;;5.85;2.70;;;17.90;1.00;;;;;;5061278;28;20232;-87
2023/07/05 04:34:08;;;;;;;6.95;2.80;;;18.00;1.00;;;;;;5064852;28;20212;-89
2023/07/05 04:36:35;;;;;;;5.38;2.90;;;18.40;1.00;;;;;;5060177;28;20199;-87
2023/07/05 04:39:03;;;;;;;9.55;2.92;;;18.80;1.00;;;;;;5072532;28;20662;-88
2023/07/05 04:41:30;;;;;;;9.02;3.20;;;19.10;1.00;;;;;;5078780;28;20197;-87
2023/07/05 04:43:57;;;;;;;7.55;3.15;;;19.50;1.00;;;;;;5073080;28;20188;-88
2023/07/05 04:46:24;;;;;;;13.52;3.65;;;19.60;1.00;;;;;;5066044;28;20196;-89
2023/07/05 04:48:51;;;;;;;10.48;3.25;;;19.60;1.00;;;;;;5075718;28;20200;-89
2023/07/05 04:51:18;;;;;;;6.72;3.10;;;19.50;1.00;;;;;;5080084;28;20252;-88
2023/07/05 04:53:46;;;;;;;9.18;3.25;;;19.40;1.00;;;;;;5081213;28;20216;-90
2023/07/05 04:56:15;;;;;;;8.18;2.83;;;19.40;1.00;;;;;;5067761;28;20196;-88
2023/07/05 04:58:42;;;;;;;7.43;3.30;;;19.50;1.00;;;;;;5074501;28;20235;-90
2023/07/05 05:01:10;;;;;;;7.07;3.35;;;19.70;1.00;;;;;;5072710;28;20198;-89
2023/07/05 05:03:38;;;;;;;6.90;3.15;;;19.90;1.00;;;;;;5071402;28;20227;-89
2023/07/05 05:06:05;;;;;;;5.20;3.05;;;20.20;1.00;;;;;;5062106;28;20213;-90
2023/07/05 05:08:32;;;;;;;6.18;3.22;;;20.30;1.00;;;;;;5068817;28;20204;-90
2023/07/05 05:11:00;;;;;;;7.13;2.67;;;20.40;1.00;;;;;;5065535;28;20708;-88
2023/07/05 05:13:31;;;;;;;4.63;2.72;;;20.60;1.00;;;;;;5084803;28;20192;-91
2023/07/05 05:15:58;;;;;;;5.03;3.25;;;20.80;1.00;;;;;;5078697;28;20617;-90
2023/07/05 05:18:27;;;;;;;7.30;3.20;;;21.00;1.00;;;;;;5077886;28;20254;-90
2023/07/05 05:20:54;;;;;;;5.15;2.72;;;21.10;1.00;;;;;;5073064;28;20655;-90
2023/07/05 05:23:22;;;;;;;9.95;2.97;;;21.20;99.90;;;;;;5065817;28;20212;-90
2023/07/05 05:25:49;;;;;;;11.25;3.72;;;21.20;99.90;;;;;;5062758;28;20250;-90
2023/07/05 05:28:17;;;;;;;5.82;2.97;;;21.10;99.90;;;;;;5074721;28;20299;-89
2023/07/05 05:30:46;;;;;;;6.28;2.70;;;21.10;99.90;;;;;;5087359;28;20206;-89
2023/07/05 05:33:14;;;;;;;8.90;2.78;;;21.00;99.90;;;;;;5085199;28;20201;-90
2023/07/05 05:35:47;;;;;;;9.23;2.80;;;21.10;99.90;;;;;;5084535;28;20196;-90
2023/07/05 05:38:14;;;;;;;3.78;2.70;;;21.00;99.90;;;;;;5081711;28;20200;-88
2023/07/05 05:40:41;;;;;;;10.50;2.67;;;21.00;99.90;;;;;;5065421;28;20208;-90
2023/07/05 05:43:08;;;;;;;5.25;2.55;;;21.00;99.90;;;;;;5074650;28;20207;-88
2023/07/05 05:45:35;;;;;;;8.43;2.60;;;21.00;99.90;;;;;;5082551;28;20192;-88
2023/07/05 05:48:04;;;;;;;8.43;2.85;;;20.90;99.90;;;;;;5065665;28;20204;-89
2023/07/05 05:50:31;;;;;;;7.55;3.22;;;21.00;99.90;;;;;;5060591;28;20216;-89
2023/07/05 05:52:58;;;;;;;7.40;2.33;;;21.00;99.90;;;;;;5065190;28;20616;-88
2023/07/05 05:55:25;;;;;;;4.50;2.28;;;20.90;99.90;;;;;;5074825;28;20199;-90
2023/07/05 05:57:52;;;;;;;5.32;2.30;;;20.90;99.90;;;;;;5069462;28;20202;-93
2023/07/05 06:00:19;;;;;;;5.22;2.40;;;21.00;99.90;;;;;;5071456;28;20196;-88
2023/07/05 06:02:46;;;;;;;7.97;2.70;;;21.10;99.90;;;;;;5072017;28;20242;-88
2023/07/05 06:05:15;;;;;;;5.72;2.25;;;21.10;99.90;;;;;;5077059;28;20249;-90
2023/07/05 06:07:42;;;;;;;4.80;2.20;;;21.20;99.90;;;;;;5081614;28;20205;-89
2023/07/05 06:10:11;;;;;;;3.70;2.28;;;21.10;99.90;;;;;;5057669;28;20223;-89
2023/07/05 06:12:41;;;;;;;5.97;2.70;;;21.20;99.90;;;;;;5066634;28;20615;-89
2023/07/05 06:15:10;;;;;;;5.20;2.08;;;21.30;99.90;;;;;;5075616;28;20673;-90
2023/07/05 06:17:37;;;;;;;4.97;2.30;;;21.40;99.90;;;;;;5078641;28;20196;-89
2023/07/05 06:20:06;;;;;;;8.35;2.30;;;21.50;99.90;;;;;;5063372;28;20235;-91
2023/07/05 06:22:35;;;;;;;8.75;2.38;;;21.70;99.90;;;;;;5066387;28;20196;-95
2023/07/05 06:25:02;;;;;;;10.27;2.35;;;22.00;99.90;;;;;;5077254;28;20689;-87
2023/07/05 06:27:29;;;;;;;3.50;2.50;;;22.20;99.90;;;;;;5054427;28;20224;-89
2023/07/05 06:29:56;;;;;;;10.55;2.78;;;22.40;99.90;;;;;;5072508;28;20258;-89
2023/07/05 06:32:23;;;;;;;5.53;2.85;;;22.60;99.90;;;;;;5064320;28;20193;-90
2023/07/05 06:34:50;;;;;;;5.15;2.70;;;22.90;99.90;;;;;;5057929;28;20197;-89
2023/07/05 06:37:17;;;;;;;7.03;2.95;;;23.10;99.90;;;;;;5068603;28;20253;-89
2023/07/05 06:39:45;;;;;;;5.60;2.65;;;23.30;99.90;;;;;;5064627;28;20251;-89
2023/07/05 06:42:12;;;;;;;7.82;2.97;;;23.50;99.90;;;;;;5065232;28;20201;-91
2023/07/05 06:44:39;;;;;;;7.70;3.17;;;23.70;99.90;;;;;;5071617;28;20258;-90
2023/07/05 06:47:06;;;;;;;9.95;3.20;;;23.90;99.90;;;;;;5063961;28;20246;-93
2023/07/05 06:49:33;;;;;;;7.82;2.90;;;24.10;99.90;;;;;;5069666;28;20258;-91
2023/07/05 06:52:00;;;;;;;5.65;2.60;;;24.30;99.90;;;;;;5077378;28;20200;-90
2023/07/05 06:54:27;;;;;;;10.10;2.88;;;24.50;99.90;;;;;;5074369;28;20196;-92
2023/07/05 06:56:56;;;;;;;8.30;3.30;;;24.60;99.90;;;;;;5072266;28;20670;-91
2023/07/05 06:59:23;;;;;;;11.43;3.28;;;24.70;99.90;;;;;;5073744;28;20196;-89
2023/07/05 07:01:50;;;;;;;5.63;3.10;;;24.70;99.90;;;;;;5067496;28;20203;-93
2023/07/05 07:04:17;;;;;;;9.63;3.33;;;24.90;99.90;;;;;;5067472;28;20220;-89
2023/07/05 07:06:44;;;;;;;6.22;2.90;;;24.90;99.90;;;;;;5053716;28;20251;-90
2023/07/05 07:09:12;;;;;;;9.13;3.22;;;24.90;99.90;;;;;;5074580;28;20197;-91
2023/07/05 07:11:39;;;;;;;4.00;3.00;;;24.90;99.90;;;;;;5067247;28;20568;-90
2023/07/05 07:14:07;;;;;;;6.40;3.10;;;24.80;99.90;;;;;;5065226;28;20197;-92
2023/07/05 07:16:34;;;;;;;10.82;3.15;;;24.70;99.90;;;;;;5068339;28;20196;-91
2023/07/05 07:19:01;;;;;;;7.82;3.78;;;24.70;99.90;;;;;;5061657;28;20205;-90
2023/07/05 07:21:28;;;;;;;11.07;3.40;;;24.80;99.90;;;;;;5071131;28;20200;-90
2023/07/05 07:23:55;;;;;;;9.18;3.33;;;24.80;99.90;;;;;;5071713;28;20716;-91
2023/07/05 07:26:24;;;;;;;12.05;3.75;;;24.60;99.90;;;;;;5086333;28;20717;-92
2023/07/05 07:28:53;;;;;;;10.43;3.53;;;24.50;99.90;;;;;;5080476;28;20210;-91
2023/07/05 07:31:23;;;;;;;7.32;3.50;;;24.50;99.90;;;;;;5078427;28;20200;-89
2023/07/05 07:33:54;;;;;;;13.02;4.03;;;24.40;99.90;;;;;;5066039;28;20198;-92
2023/07/05 07:36:23;;;;;;;7.53;3.38;;;24.40;99.90;;;;;;5072551;28;20200;-90
2023/07/05 07:38:51;;;;;;;8.43;3.60;;;24.50;99.90;;;;;;5061092;28;20203;-89
2023/07/05 07:41:23;;;;;;;7.03;3.58;;;24.50;99.90;;;;;;5066313;28;20204;-89
2023/07/05 07:43:52;;;;;;;6.18;3.97;;;24.50;99.90;;;;;;5076603;28;20200;-92
2023/07/05 07:46:22;;;;;;;10.75;4.03;;;24.60;99.90;;;;;;5066015;28;20203;-89
2023/07/05 07:48:53;;;;;;;8.38;3.30;;;24.70;99.90;;;;;;5077853;28;20200;-92
2023/07/05 07:51:34;;;;;;;7.85;4.00;;;24.80;99.90;;;;;;5075539;28;20204;-90
2023/07/05 07:54:01;;;;;;;8.35;4.30;;;24.80;99.90;;;;;;5066568;28;20196;-90
2023/07/05 07:56:29;;;;;;;9.77;4.07;;;24.80;99.90;;;;;;5077625;28;20200;-91
2023/07/05 07:58:58;;;;;;;9.55;4.57;;;24.80;99.90;;;;;;5077588;28;20197;-89
2023/07/05 08:01:28;;;;;;;9.35;4.55;;;24.80;99.90;;;;;;5069683;28;20200;-89
2023/07/05 08:03:57;;;;;;;16.70;4.63;;;24.80;99.90;;;;;;5077648;28;20223;-91
2023/07/05 08:06:30;;;;;;;10.35;4.90;;;24.90;99.90;;;;;;5062177;28;20203;-90
2023/07/05 08:09:02;;;;;;;10.73;4.65;;;24.90;99.90;;;;;;5069763;28;20699;-92
2023/07/05 08:11:29;;;;;;;8.20;4.57;;;25.00;99.90;;;;;;5080970;28;20207;-91
2023/07/05 08:13:56;;;;;;;8.90;5.85;;;25.00;99.90;;;;;;5065240;28;20203;-90
2023/07/05 08:16:24;;;;;;;11.50;5.40;;;25.10;99.90;;;;;;5063377;28;20201;-90
2023/07/05 08:18:53;;;;;;;12.55;5.15;;;25.10;99.90;;;;;;5077388;28;20287;-91
2023/07/05 08:21:20;;;;;;;13.57;5.05;;;25.00;99.90;;;;;;5071089;28;20193;-89
2023/07/05 08:23:47;;;;;;;11.90;5.35;;;25.00;99.90;;;;;;5067562;28;20223;-93
2023/07/05 08:26:15;;;;;;;10.90;5.57;;;25.20;99.90;;;;;;5064609;28;20261;-89
2023/07/05 08:28:43;;;;;;;12.43;5.80;;;25.40;99.90;;;;;;5061885;28;20718;-91
2023/07/05 08:31:11;;;;;;;11.18;5.70;;;25.70;99.90;;;;;;5066236;28;20270;-93
2023/07/05 08:33:39;;;;;;;14.15;5.63;;;26.00;99.90;;;;;;5065216;28;20650;-91
2023/07/05 08:36:18;;;;;;;12.10;5.70;;;26.30;99.90;;;;;;5067970;28;20197;-92
2023/07/05 08:38:48;;;;;;;12.40;5.72;;;26.70;99.90;;;;;;5057553;28;20735;-91
2023/07/05 08:41:23;;;;;;;8.70;5.95;;;27.20;99.90;;;;;;5076313;28;20719;-92
2023/07/05 08:43:57;;;;;;;13.40;7.05;;;27.50;99.90;;;;;;5061292;28;20253;-90
2023/07/05 08:46:27;;;;;;;10.80;7.38;;;27.50;99.90;;;;;;5072983;28;20215;-92
2023/07/05 08:49:02;;;;;;;13.63;7.85;;;27.50;99.90;;;;;;5076539;28;20196;-90
2023/07/05 08:51:31;;;;;;;20.48;9.25;;;27.50;99.90;;;;;;5075190;28;20209;-90
2023/07/05 08:54:04;;;;;;;14.30;9.18;;;27.50;99.90;;;;;;5063197;28;20208;-91
2023/07/05 08:56:35;;;;;;;17.50;10.43;;;27.50;99.90;;;;;;5075873;28;20204;-90
2023/07/05 08:59:07;;;;;;;16.40;10.73;;;27.50;99.90;;;;;;5070108;28;20197;-90
2023/07/05 09:01:38;;;;;;;16.40;9.85;;;27.50;99.90;;;;;;5061247;28;20192;-91
2023/07/05 09:04:12;;;;;;;16.65;8.10;;;27.40;99.90;;;;;;5071974;28;20272;-90
2023/07/05 09:06:52;;;;;;;12.15;7.82;;;27.30;99.90;;;;;;5065342;28;20264;-90
2023/07/05 09:09:48;;;;;;;11.57;8.60;;;27.30;99.90;;;;;;5072414;28;20199;-90
2023/07/05 09:12:23;;;;;;;15.65;8.80;;;27.30;99.90;;;;;;5059533;28;20239;-91
2023/07/05 09:15:12;;;;;;;17.90;9.32;;;27.30;99.90;;;;;;5061072;28;20222;-92
2023/07/05 09:17:50;;;;;;;20.02;13.98;;;27.30;99.90;;;;;;5074183;28;20224;-92
2023/07/05 09:20:36;;;;;;;26.13;18.10;;;27.30;99.90;;;;;;5055914;28;20199;-91
2023/07/05 09:23:13;;;;;;;18.08;11.02;;;27.30;99.90;;;;;;5062640;28;20279;-93
2023/07/05 09:25:44;;;;;;;21.00;10.35;;;27.40;99.90;;;;;;5082783;28;20204;-92
2023/07/05 09:28:19;;;;;;;18.05;10.52;;;27.50;99.90;;;;;;5063831;28;20255;-91
2023/07/05 09:30:47;;;;;;;16.08;9.35;;;27.70;99.90;;;;;;5056316;28;20642;-92
2023/07/05 09:33:19;;;;;;;13.32;9.80;;;27.90;99.90;;;;;;5073044;28;20200;-92
2023/07/05 09:35:48;;;;;;;17.73;11.45;;;28.00;99.90;;;;;;5068067;28;20188;-92
2023/07/05 09:38:24;;;;;;;26.85;17.77;;;27.90;99.90;;;;;;5076035;28;20281;-93
2023/07/05 09:41:02;;;;;;;18.17;12.05;;;27.80;99.90;;;;;;5075009;28;20253;-93
2023/07/05 09:43:31;;;;;;;16.90;11.77;;;27.60;99.90;;;;;;5075295;28;20561;-91
2023/07/05 09:48:50;;;;;;;16.15;11.63;;;27.60;99.90;;;;;;5870346;23;20230;-96
2023/07/05 09:56:34;;;;;;;18.23;10.88;;;28.30;99.90;;;;;;6022973;23;20236;-92
2023/07/05 10:04:09;;;;;;;18.65;12.27;;;28.20;99.90;;;;;;4999644;28;20210;-90
2023/07/05 10:06:41;;;;;;;18.33;10.60;;;28.50;99.90;;;;;;5005826;28;20215;-90
2023/07/05 10:09:16;;;;;;;15.20;10.75;;;28.70;99.90;;;;;;5007379;28;20225;-87
2023/07/05 10:11:46;;;;;;;18.65;11.63;;;28.90;99.90;;;;;;5010139;28;20213;-92
2023/07/05 10:14:15;;;;;;;17.95;10.98;;;28.80;99.90;;;;;;5006461;28;20202;-91
2023/07/05 10:16:48;;;;;;;16.58;10.75;;;28.50;99.90;;;;;;5002633;28;20206;-89
2023/07/05 10:19:27;;;;;;;19.02;14.30;;;28.10;99.90;;;;;;5014035;28;20731;-90
2023/07/05 10:21:58;;;;;;;18.25;10.88;;;28.00;99.90;;;;;;5005292;28;20198;-90
2023/07/05 10:24:27;;;;;;;16.55;11.30;;;28.10;99.90;;;;;;5014477;28;20256;-90
2023/07/05 10:27:12;;;;;;;18.33;11.10;;;28.30;99.90;;;;;;5013078;28;20651;-90
2023/07/05 10:29:42;;;;;;;21.75;11.45;;;28.30;99.90;;;;;;5008561;28;20613;-90
2023/07/05 10:32:18;;;;;;;24.00;11.73;;;28.40;99.90;;;;;;5013344;28;20194;-91
2023/07/05 10:34:48;;;;;;;22.30;12.38;;;28.50;99.90;;;;;;5006161;28;20193;-92
2023/07/05 10:37:32;;;;;;;19.15;11.48;;;28.60;99.90;;;;;;5021315;28;20645;-91
2023/07/05 10:40:08;;;;;;;21.52;11.52;;;28.40;99.90;;;;;;5005514;28;20197;-91
2023/07/05 10:42:38;;;;;;;19.00;12.23;;;28.30;99.90;;;;;;5025019;28;20228;-92
2023/07/05 10:45:06;;;;;;;18.02;10.48;;;28.20;99.90;;;;;;5019799;28;20571;-91
2023/07/05 10:47:34;;;;;;;55.50;13.88;;;28.40;99.90;;;;;;5028198;28;20247;-92
2023/07/05 10:50:05;;;;;;;24.65;11.43;;;28.80;99.90;;;;;;5014764;28;20260;-91
2023/07/05 10:52:34;;;;;;;14.82;10.48;;;29.30;99.90;;;;;;5000856;28;20267;-92
2023/07/05 10:55:08;;;;;;;15.73;10.45;;;29.90;99.90;;;;;;5004272;28;20203;-92
2023/07/05 10:57:42;;;;;;;18.67;11.50;;;30.20;99.90;;;;;;5013361;28;20194;-93
2023/07/05 11:00:21;;;;;;;16.38;12.30;;;30.30;99.90;;;;;;5002728;28;20268;-91
2023/07/05 11:02:55;;;;;;;17.02;11.23;;;30.20;99.90;;;;;;5011180;28;20288;-92
2023/07/05 11:05:26;;;;;;;16.50;12.63;;;30.50;99.90;;;;;;5003634;28;20244;-94
2023/07/05 11:07:59;;;;;;;16.70;11.07;;;30.70;99.90;;;;;;5018325;28;20659;-93
2023/07/05 11:10:27;;;;;;;15.55;12.10;;;30.90;99.90;;;;;;5020064;28;20256;-91
2023/07/05 11:12:56;;;;;;;16.63;12.05;;;31.00;99.90;;;;;;5024049;28;20209;-92
2023/07/05 11:15:24;;;;;;;17.90;11.95;;;30.90;99.90;;;;;;5020251;28;20191;-94
2023/07/05 11:17:51;;;;;;;19.52;12.18;;;30.60;99.90;;;;;;5017581;28;20656;-93
2023/07/05 11:20:47;;;;;;;19.15;13.85;;;30.50;99.90;;;;;;5015584;28;20198;-92
2023/07/05 11:23:55;;;;;;;17.60;11.35;;;30.60;99.90;;;;;;5025225;28;20251;-93
2023/07/05 11:26:36;;;;;;;15.55;10.50;;;30.80;99.90;;;;;;5006455;28;20209;-92
2023/07/05 11:29:51;;;;;;;15.43;10.60;;;31.10;99.90;;;;;;5023569;28;20208;-94
2023/07/05 11:32:19;;;;;;;15.45;10.88;;;31.00;99.90;;;;;;5010014;28;20278;-93
2023/07/05 11:34:52;;;;;;;21.88;11.35;;;30.70;99.90;;;;;;5013416;28;20232;-92
2023/07/05 11:37:43;;;;;;;16.15;10.75;;;30.20;99.90;;;;;;5017588;28;20245;-93
2023/07/05 11:40:59;;;;;;;12.90;10.07;;;29.60;99.90;;;;;;5017936;28;20210;-93
2023/07/05 11:43:34;;;;;;;12.35;8.93;;;29.10;99.90;;;;;;5012178;28;20238;-91
2023/07/05 11:46:01;;;;;;;11.50;8.57;;;28.70;99.90;;;;;;5025683;28;20588;-92
2023/07/05 11:48:43;;;;;;;12.60;9.02;;;28.60;99.90;;;;;;5037292;28;20244;-92
2023/07/05 11:51:30;;;;;;;11.68;9.02;;;28.70;99.90;;;;;;5037114;28;20568;-92
2023/07/05 11:54:01;;;;;;;12.95;7.95;;;29.30;99.90;;;;;;5010967;28;20198;-93
2023/07/05 11:56:30;;;;;;;12.05;8.20;;;29.80;99.90;;;;;;5026852;28;20237;-94
2023/07/05 11:59:02;;;;;;;12.38;9.52;;;30.30;99.90;;;;;;5018362;28;20610;-92
2023/07/05 12:01:33;;;;;;;13.02;9.75;;;30.80;99.90;;;;;;5018261;28;20211;-93
2023/07/05 12:04:05;;;;;;;11.52;8.60;;;31.10;99.90;;;;;;5026074;28;20222;-92
2023/07/05 12:06:38;;;;;;;13.27;8.50;;;31.10;99.90;;;;;;5034959;28;20206;-93
2023/07/05 12:09:10;;;;;;;10.35;7.65;;;31.00;99.90;;;;;;5033646;28;20299;-93
2023/07/05 12:11:38;;;;;;;9.95;6.90;;;31.10;99.90;;;;;;5027415;28;20193;-93
2023/07/05 12:14:10;;;;;;;10.75;7.70;;;31.20;99.90;;;;;;5017955;28;20206;-93
2023/07/05 12:16:38;;;;;;;5.00;3.47;;;31.30;99.90;;;;;;5019105;28;20252;-93
2023/07/05 12:19:08;;;;;;;4.63;3.53;;;31.30;99.90;;;;;;5015065;28;20665;-93
2023/07/05 12:21:36;;;;;;;6.70;3.47;;;31.50;99.90;;;;;;5015680;28;20281;-93
2023/07/05 12:24:07;;;;;;;4.50;3.35;;;31.90;99.90;;;;;;5017132;28;20259;-93
2023/07/05 12:26:35;;;;;;;3.88;3.08;;;32.20;99.90;;;;;;5026585;28;20577;-92
2023/07/05 12:29:14;;;;;;;5.30;4.18;;;32.10;99.90;;;;;;5022445;28;20202;-94
2023/07/05 12:31:43;;;;;;;4.05;3.05;;;31.90;99.90;;;;;;5007640;28;20203;-94
2023/07/05 12:34:18;;;;;;;5.18;3.13;;;31.90;99.90;;;;;;5024318;28;20619;-93
2023/07/05 12:36:45;;;;;;;5.85;3.20;;;32.30;99.90;;;;;;5008609;28;20206;-93
2023/07/05 12:39:16;;;;;;;4.68;3.67;;;32.50;99.90;;;;;;5012287;28;20194;-92
2023/07/05 12:41:43;;;;;;;4.93;3.55;;;32.50;99.90;;;;;;5023935;28;20675;-94
2023/07/05 12:44:14;;;;;;;6.00;4.25;;;32.40;99.90;;;;;;5017606;28;20264;-92
2023/07/05 12:46:43;;;;;;;8.07;4.35;;;32.10;99.90;;;;;;5017059;28;20245;-93
2023/07/05 12:49:11;;;;;;;7.80;3.95;;;31.80;99.90;;;;;;5016482;28;20200;-93
2023/07/05 12:51:48;;;;;;;9.35;4.38;;;31.60;99.90;;;;;;5027991;28;20269;-93
2023/07/05 12:54:15;;;;;;;9.25;4.30;;;31.40;99.90;;;;;;5026380;28;20234;-93
2023/07/05 12:56:45;;;;;;;5.90;4.38;;;31.30;99.90;;;;;;5016598;28;20206;-94
2023/07/05 12:59:25;;;;;;;7.10;4.55;;;31.10;99.90;;;;;;5003446;28;20240;-92
2023/07/05 13:01:54;;;;;;;6.28;4.10;;;31.30;99.90;;;;;;5019703;28;20194;-94
2023/07/05 13:04:22;;;;;;;8.43;4.63;;;31.50;99.90;;;;;;5018050;28;20198;-93
2023/07/05 13:06:52;;;;;;;5.32;4.57;;;31.70;99.90;;;;;;5015904;28;20222;-94
2023/07/05 13:09:26;;;;;;;5.32;4.00;;;31.80;99.90;;;;;;5016605;28;20221;-93
2023/07/05 13:11:58;;;;;;;6.75;4.53;;;32.00;99.90;;;;;;5026779;28;20197;-93
2023/07/05 13:14:28;;;;;;;5.53;4.43;;;31.90;99.90;;;;;;5002640;28;20292;-95